sensor_id;sensor_type;location;lat;lon;timestamp;P1;durP1;ratioP1;P2;durP2;ratioP2
68872;SDS011;55907;50.806;12.882;2024-03-23T00:52:25;7.5;;;7.0;;
68872;SDS011;55907;50.806;12.882;2024-03-23T00:55:26;7.2;;;6.6;;
68872;SDS011;55907;50.806;12.882;2024-03-23T01:01:28;8.2;;;7.5;;
68872;SDS011;55907;50.806;12.882;2024-03-23T01:04:28;7.5;;;6.9;;
68872;SDS011;55907;50.806;12.882;2024-03-23T01:07:29;7.1;;;6.6;;
68872;SDS011;55907;50.806;12.882;2024-03-23T01:10:30;7.9;;;7.2;;
68872;SDS011;55907;50.806;12.882;2024-03-23T01:13:30;7.4;;;6.7;;
68872;SDS011;55907;50.806;12.882;2024-03-23T01:16:31;8.5;;;7.8;;
68872;SDS011;55907;50.806;12.882;2024-03-23T01:19:32;7.6;;;7.0;;
68872;SDS011;55907;50.806;12.882;2024-03-23T01:22:33;8.1;;;7.3;;
68872;SDS011;55907;50.806;12.882;2024-03-23T01:25:33;7.6;;;6.9;;
68872;SDS011;55907;50.806;12.882;2024-03-23T01:28:34;7.8;;;7.2;;
68872;SDS011;55907;50.806;12.882;2024-03-23T01:31:35;7.4;;;6.8;;
68872;SDS011;55907;50.806;12.882;2024-03-23T01:34:36;7.7;;;7.1;;
68872;SDS011;55907;50.806;12.882;2024-03-23T01:37:36;7.1;;;6.6;;
68872;SDS011;55907;50.806;12.882;2024-03-23T01:40:37;7.7;;;7.0;;
68872;SDS011;55907;50.806;12.882;2024-03-23T01:43:38;7.1;;;6.6;;
68872;SDS011;55907;50.806;12.882;2024-03-23T01:46:38;7.7;;;7.0;;
68872;SDS011;55907;50.806;12.882;2024-03-23T01:52:40;7.9;;;7.2;;
68872;SDS011;55907;50.806;12.882;2024-03-23T01:55:41;6.8;;;6.4;;
68872;SDS011;55907;50.806;12.882;2024-03-23T01:58:41;7.2;;;6.7;;
68872;SDS011;55907;50.806;12.882;2024-03-23T02:01:42;8.4;;;7.7;;
68872;SDS011;55907;50.806;12.882;2024-03-23T02:04:43;15.1;;;8.2;;
68872;SDS011;55907;50.806;12.882;2024-03-23T02:07:43;8.8;;;7.7;;
68872;SDS011;55907;50.806;12.882;2024-03-23T02:10:44;7.6;;;6.9;;
68872;SDS011;55907;50.806;12.882;2024-03-23T02:13:45;8.8;;;7.9;;
68872;SDS011;55907;50.806;12.882;2024-03-23T02:16:46;8.1;;;7.3;;
68872;SDS011;55907;50.806;12.882;2024-03-23T02:19:46;9.0;;;8.1;;
68872;SDS011;55907;50.806;12.882;2024-03-23T02:22:50;11.9;;;9.7;;
68872;SDS011;55907;50.806;12.882;2024-03-23T02:25:48;8.3;;;7.6;;
68872;SDS011;55907;50.806;12.882;2024-03-23T02:28:49;8.0;;;7.3;;
68872;SDS011;55907;50.806;12.882;2024-03-23T02:31:49;7.7;;;7.0;;
68872;SDS011;55907;50.806;12.882;2024-03-23T02:34:50;8.4;;;7.5;;
68872;SDS011;55907;50.806;12.882;2024-03-23T02:37:51;9.4;;;8.0;;
68872;SDS011;55907;50.806;12.882;2024-03-23T02:40:51;8.4;;;7.7;;
68872;SDS011;55907;50.806;12.882;2024-03-23T02:43:52;8.2;;;7.5;;
68872;SDS011;55907;50.806;12.882;2024-03-23T02:46:53;9.8;;;8.1;;
68872;SDS011;55907;50.806;12.882;2024-03-23T02:49:54;9.0;;;8.2;;
68872;SDS011;55907;50.806;12.882;2024-03-23T02:52:54;9.6;;;8.2;;
68872;SDS011;55907;50.806;12.882;2024-03-23T02:55:57;10.2;;;9.1;;
68872;SDS011;55907;50.806;12.882;2024-03-23T02:58:56;8.9;;;8.1;;
68872;SDS011;55907;50.806;12.882;2024-03-23T03:01:57;9.4;;;8.6;;
68872;SDS011;55907;50.806;12.882;2024-03-23T03:04:57;9.1;;;8.2;;
68872;SDS011;55907;50.806;12.882;2024-03-23T03:07:58;9.5;;;8.0;;
68872;SDS011;55907;50.806;12.882;2024-03-23T03:10:59;10.6;;;8.5;;
68872;SDS011;55907;50.806;12.882;2024-03-23T03:14:00;9.6;;;8.7;;
68872;SDS011;55907;50.806;12.882;2024-03-23T03:17:00;12.4;;;9.9;;
68872;SDS011;55907;50.806;12.882;2024-03-23T03:20:01;15.7;;;10.8;;
68872;SDS011;55907;50.806;12.882;2024-03-23T03:23:02;12.0;;;10.4;;
68872;SDS011;55907;50.806;12.882;2024-03-23T03:26:03;17.3;;;12.6;;
68872;SDS011;55907;50.806;12.882;2024-03-23T03:29:03;15.1;;;11.7;;
68872;SDS011;55907;50.806;12.882;2024-03-23T03:32:04;18.6;;;13.6;;
68872;SDS011;55907;50.806;12.882;2024-03-23T03:35:05;31.9;;;20.9;;
68872;SDS011;55907;50.806;12.882;2024-03-23T03:38:06;17.4;;;13.0;;
68872;SDS011;55907;50.806;12.882;2024-03-23T03:41:06;19.0;;;14.6;;
68872;SDS011;55907;50.806;12.882;2024-03-23T03:44:07;25.6;;;17.0;;
68872;SDS011;55907;50.806;12.882;2024-03-23T03:47:08;28.2;;;17.8;;
68872;SDS011;55907;50.806;12.882;2024-03-23T03:50:09;26.6;;;18.4;;
68872;SDS011;55907;50.806;12.882;2024-03-23T03:53:09;30.1;;;18.8;;
68872;SDS011;55907;50.806;12.882;2024-03-23T03:56:10;30.6;;;21.1;;
68872;SDS011;55907;50.806;12.882;2024-03-23T03:59:11;33.0;;;19.7;;
68872;SDS011;55907;50.806;12.882;2024-03-23T04:02:12;32.9;;;20.3;;
68872;SDS011;55907;50.806;12.882;2024-03-23T04:05:12;32.2;;;19.3;;
68872;SDS011;55907;50.806;12.882;2024-03-23T04:08:13;48.3;;;22.9;;
68872;SDS011;55907;50.806;12.882;2024-03-23T04:11:14;36.4;;;21.5;;
68872;SDS011;55907;50.806;12.882;2024-03-23T04:14:15;38.0;;;23.3;;
68872;SDS011;55907;50.806;12.882;2024-03-23T04:17:15;38.2;;;23.2;;
68872;SDS011;55907;50.806;12.882;2024-03-23T04:20:16;36.2;;;22.1;;
68872;SDS011;55907;50.806;12.882;2024-03-23T04:23:17;34.4;;;19.9;;
68872;SDS011;55907;50.806;12.882;2024-03-23T04:26:18;25.4;;;17.7;;
68872;SDS011;55907;50.806;12.882;2024-03-23T04:29:18;24.4;;;16.2;;
68872;SDS011;55907;50.806;12.882;2024-03-23T04:32:19;23.3;;;16.4;;
68872;SDS011;55907;50.806;12.882;2024-03-23T04:35:20;27.8;;;17.5;;
68872;SDS011;55907;50.806;12.882;2024-03-23T04:38:21;28.6;;;17.9;;
68872;SDS011;55907;50.806;12.882;2024-03-23T04:41:21;29.0;;;17.8;;
68872;SDS011;55907;50.806;12.882;2024-03-23T04:44:22;31.6;;;19.4;;
68872;SDS011;55907;50.806;12.882;2024-03-23T04:47:23;39.4;;;21.7;;
68872;SDS011;55907;50.806;12.882;2024-03-23T04:50:24;37.3;;;20.3;;
68872;SDS011;55907;50.806;12.882;2024-03-23T04:53:24;29.2;;;19.6;;
68872;SDS011;55907;50.806;12.882;2024-03-23T04:56:25;35.4;;;19.5;;
68872;SDS011;55907;50.806;12.882;2024-03-23T04:59:26;55.0;;;20.9;;
68872;SDS011;55907;50.806;12.882;2024-03-23T05:02:27;33.0;;;19.4;;
68872;SDS011;55907;50.806;12.882;2024-03-23T05:05:27;37.4;;;20.8;;
68872;SDS011;55907;50.806;12.882;2024-03-23T05:08:28;33.6;;;20.6;;
68872;SDS011;55907;50.806;12.882;2024-03-23T05:11:29;34.9;;;20.3;;
68872;SDS011;55907;50.806;12.882;2024-03-23T05:14:30;35.5;;;19.5;;
68872;SDS011;55907;50.806;12.882;2024-03-23T05:17:31;38.2;;;21.2;;
68872;SDS011;55907;50.806;12.882;2024-03-23T05:20:31;86.5;;;23.2;;
68872;SDS011;55907;50.806;12.882;2024-03-23T05:23:32;46.7;;;22.3;;
68872;SDS011;55907;50.806;12.882;2024-03-23T05:26:34;39.0;;;22.0;;
68872;SDS011;55907;50.806;12.882;2024-03-23T05:29:34;30.8;;;19.3;;
68872;SDS011;55907;50.806;12.882;2024-03-23T05:32:34;26.4;;;18.1;;
68872;SDS011;55907;50.806;12.882;2024-03-23T05:35:35;26.5;;;17.3;;
68872;SDS011;55907;50.806;12.882;2024-03-23T05:38:36;25.5;;;17.9;;
68872;SDS011;55907;50.806;12.882;2024-03-23T05:41:37;22.4;;;15.9;;
68872;SDS011;55907;50.806;12.882;2024-03-23T05:44:37;29.3;;;18.5;;
68872;SDS011;55907;50.806;12.882;2024-03-23T05:47:38;23.9;;;16.8;;
68872;SDS011;55907;50.806;12.882;2024-03-23T05:50:39;23.8;;;16.3;;
68872;SDS011;55907;50.806;12.882;2024-03-23T05:53:40;24.4;;;16.9;;
68872;SDS011;55907;50.806;12.882;2024-03-23T05:56:40;23.2;;;15.8;;
68872;SDS011;55907;50.806;12.882;2024-03-23T05:59:41;23.0;;;16.0;;
68872;SDS011;55907;50.806;12.882;2024-03-23T06:02:42;21.9;;;14.9;;
68872;SDS011;55907;50.806;12.882;2024-03-23T06:05:43;20.1;;;14.2;;
68872;SDS011;55907;50.806;12.882;2024-03-23T06:08:43;20.3;;;14.3;;
68872;SDS011;55907;50.806;12.882;2024-03-23T06:11:44;20.0;;;15.0;;
68872;SDS011;55907;50.806;12.882;2024-03-23T06:14:45;13.8;;;11.1;;
68872;SDS011;55907;50.806;12.882;2024-03-23T06:17:46;13.2;;;10.8;;
68872;SDS011;55907;50.806;12.882;2024-03-23T06:20:46;18.9;;;15.9;;
68872;SDS011;55907;50.806;12.882;2024-03-23T06:23:47;19.5;;;15.0;;
68872;SDS011;55907;50.806;12.882;2024-03-23T06:26:48;12.5;;;11.2;;
68872;SDS011;55907;50.806;12.882;2024-03-23T06:29:49;15.4;;;11.3;;
68872;SDS011;55907;50.806;12.882;2024-03-23T06:32:49;14.3;;;11.4;;
68872;SDS011;55907;50.806;12.882;2024-03-23T06:35:50;13.2;;;11.1;;
68872;SDS011;55907;50.806;12.882;2024-03-23T06:38:51;13.4;;;11.9;;
68872;SDS011;55907;50.806;12.882;2024-03-23T06:41:52;13.2;;;11.3;;
68872;SDS011;55907;50.806;12.882;2024-03-23T06:44:52;13.6;;;10.8;;
68872;SDS011;55907;50.806;12.882;2024-03-23T06:47:53;13.5;;;11.2;;
68872;SDS011;55907;50.806;12.882;2024-03-23T06:50:55;12.9;;;11.2;;
68872;SDS011;55907;50.806;12.882;2024-03-23T06:53:55;10.7;;;9.6;;
68872;SDS011;55907;50.806;12.882;2024-03-23T06:56:55;15.1;;;11.8;;
68872;SDS011;55907;50.806;12.882;2024-03-23T06:59:56;15.5;;;12.8;;
68872;SDS011;55907;50.806;12.882;2024-03-23T07:02:57;18.4;;;13.8;;
68872;SDS011;55907;50.806;12.882;2024-03-23T07:05:58;17.7;;;13.7;;
68872;SDS011;55907;50.806;12.882;2024-03-23T07:08:58;19.3;;;13.4;;
68872;SDS011;55907;50.806;12.882;2024-03-23T07:11:59;20.9;;;15.2;;
68872;SDS011;55907;50.806;12.882;2024-03-23T07:15:00;18.3;;;14.1;;
68872;SDS011;55907;50.806;12.882;2024-03-23T07:18:01;17.9;;;13.5;;
68872;SDS011;55907;50.806;12.882;2024-03-23T07:24:02;17.1;;;13.1;;
68872;SDS011;55907;50.806;12.882;2024-03-23T07:27:03;17.6;;;13.8;;
68872;SDS011;55907;50.806;12.882;2024-03-23T07:30:04;18.3;;;13.7;;
68872;SDS011;55907;50.806;12.882;2024-03-23T07:36:05;20.8;;;15.4;;
68872;SDS011;55907;50.806;12.882;2024-03-23T07:39:06;30.5;;;22.9;;
68872;SDS011;55907;50.806;12.882;2024-03-23T07:42:07;20.4;;;15.1;;
68872;SDS011;55907;50.806;12.882;2024-03-23T07:45:08;14.4;;;12.0;;
68872;SDS011;55907;50.806;12.882;2024-03-23T07:48:08;18.9;;;14.1;;
68872;SDS011;55907;50.806;12.882;2024-03-23T07:51:09;17.3;;;13.5;;
68872;SDS011;55907;50.806;12.882;2024-03-23T07:54:10;20.4;;;15.1;;
68872;SDS011;55907;50.806;12.882;2024-03-23T07:57:10;14.5;;;12.5;;
68872;SDS011;55907;50.806;12.882;2024-03-23T08:00:12;11.1;;;9.9;;
68872;SDS011;55907;50.806;12.882;2024-03-23T08:03:12;9.5;;;8.5;;
68872;SDS011;55907;50.806;12.882;2024-03-23T08:06:13;8.8;;;8.0;;
68872;SDS011;55907;50.806;12.882;2024-03-23T08:09:13;10.1;;;9.0;;
68872;SDS011;55907;50.806;12.882;2024-03-23T08:12:14;9.8;;;8.9;;
68872;SDS011;55907;50.806;12.882;2024-03-23T08:15:15;10.4;;;9.4;;
68872;SDS011;55907;50.806;12.882;2024-03-23T08:18:16;13.4;;;11.2;;
68872;SDS011;55907;50.806;12.882;2024-03-23T08:21:16;12.0;;;10.8;;
68872;SDS011;55907;50.806;12.882;2024-03-23T08:24:17;11.8;;;10.7;;
68872;SDS011;55907;50.806;12.882;2024-03-23T08:27:18;9.9;;;9.0;;
68872;SDS011;55907;50.806;12.882;2024-03-23T08:30:18;11.7;;;10.6;;
68872;SDS011;55907;50.806;12.882;2024-03-23T08:33:19;10.7;;;9.7;;
68872;SDS011;55907;50.806;12.882;2024-03-23T08:36:20;11.2;;;9.9;;
68872;SDS011;55907;50.806;12.882;2024-03-23T08:42:21;12.3;;;11.1;;
68872;SDS011;55907;50.806;12.882;2024-03-23T08:45:23;12.5;;;11.0;;
68872;SDS011;55907;50.806;12.882;2024-03-23T08:48:23;10.7;;;9.6;;
68872;SDS011;55907;50.806;12.882;2024-03-23T08:51:24;13.5;;;10.6;;
68872;SDS011;55907;50.806;12.882;2024-03-23T08:54:24;11.0;;;10.0;;
68872;SDS011;55907;50.806;12.882;2024-03-23T08:57:25;11.1;;;9.9;;
68872;SDS011;55907;50.806;12.882;2024-03-23T09:00:26;12.5;;;11.2;;
68872;SDS011;55907;50.806;12.882;2024-03-23T09:03:27;6.3;;;5.7;;
68872;SDS011;55907;50.806;12.882;2024-03-23T09:06:27;5.1;;;4.7;;
68872;SDS011;55907;50.806;12.882;2024-03-23T09:09:28;7.3;;;6.3;;
68872;SDS011;55907;50.806;12.882;2024-03-23T09:12:29;2.6;;;2.2;;
68872;SDS011;55907;50.806;12.882;2024-03-23T09:15:30;1.9;;;1.6;;
68872;SDS011;55907;50.806;12.882;2024-03-23T09:18:31;1.2;;;1.2;;
68872;SDS011;55907;50.806;12.882;2024-03-23T09:21:31;0.5;;;0.5;;
68872;SDS011;55907;50.806;12.882;2024-03-23T09:24:32;0.6;;;0.6;;
68872;SDS011;55907;50.806;12.882;2024-03-23T09:27:33;0.8;;;0.7;;
68872;SDS011;55907;50.806;12.882;2024-03-23T09:30:34;0.7;;;0.6;;
68872;SDS011;55907;50.806;12.882;2024-03-23T09:33:34;0.9;;;0.8;;
68872;SDS011;55907;50.806;12.882;2024-03-23T09:36:35;1.1;;;0.8;;
68872;SDS011;55907;50.806;12.882;2024-03-23T09:39:36;0.5;;;0.5;;
68872;SDS011;55907;50.806;12.882;2024-03-23T09:42:36;0.6;;;0.6;;
68872;SDS011;55907;50.806;12.882;2024-03-23T09:45:38;0.5;;;0.5;;
68872;SDS011;55907;50.806;12.882;2024-03-23T09:48:38;0.4;;;0.3;;
68872;SDS011;55907;50.806;12.882;2024-03-23T09:51:39;0.5;;;0.5;;
68872;SDS011;55907;50.806;12.882;2024-03-23T09:54:40;0.7;;;0.6;;
68872;SDS011;55907;50.806;12.882;2024-03-23T09:57:40;0.4;;;0.4;;
68872;SDS011;55907;50.806;12.882;2024-03-23T10:03:42;0.9;;;0.9;;
68872;SDS011;55907;50.806;12.882;2024-03-23T10:06:43;3.0;;;1.6;;
68872;SDS011;55907;50.806;12.882;2024-03-23T10:09:44;1.7;;;0.7;;
68872;SDS011;55907;50.806;12.882;2024-03-23T10:12:45;0.3;;;0.3;;
68872;SDS011;55907;50.806;12.882;2024-03-23T10:15:45;1.7;;;1.3;;
68872;SDS011;55907;50.806;12.882;2024-03-23T10:18:46;1.1;;;0.6;;
68872;SDS011;55907;50.806;12.882;2024-03-23T10:21:52;0.7;;;0.4;;
68872;SDS011;55907;50.806;12.882;2024-03-23T10:24:48;0.4;;;0.4;;
68872;SDS011;55907;50.806;12.882;2024-03-23T10:27:55;0.5;;;0.5;;
68872;SDS011;55907;50.806;12.882;2024-03-23T10:30:49;1.2;;;1.1;;
68872;SDS011;55907;50.806;12.882;2024-03-23T10:33:50;1.0;;;0.9;;
68872;SDS011;55907;50.806;12.882;2024-03-23T10:36:50;1.6;;;1.5;;
68872;SDS011;55907;50.806;12.882;2024-03-23T10:39:51;2.0;;;1.9;;
68872;SDS011;55907;50.806;12.882;2024-03-23T10:42:52;4.8;;;4.3;;
68872;SDS011;55907;50.806;12.882;2024-03-23T10:45:53;2.0;;;1.9;;
68872;SDS011;55907;50.806;12.882;2024-03-23T10:48:53;1.4;;;1.4;;
68872;SDS011;55907;50.806;12.882;2024-03-23T10:54:55;0.6;;;0.6;;
68872;SDS011;55907;50.806;12.882;2024-03-23T10:57:56;1.5;;;1.4;;
68872;SDS011;55907;50.806;12.882;2024-03-23T11:00:56;0.9;;;0.8;;
68872;SDS011;55907;50.806;12.882;2024-03-23T11:03:57;0.8;;;0.7;;
68872;SDS011;55907;50.806;12.882;2024-03-23T11:06:58;0.7;;;0.7;;
68872;SDS011;55907;50.806;12.882;2024-03-23T11:09:59;0.6;;;0.6;;
68872;SDS011;55907;50.806;12.882;2024-03-23T11:13:21;0.9;;;0.5;;
68872;SDS011;55907;50.806;12.882;2024-03-23T11:16:08;1.0;;;1.0;;
68872;SDS011;55907;50.806;12.882;2024-03-23T11:22:02;0.9;;;0.9;;
68872;SDS011;55907;50.806;12.882;2024-03-23T11:25:03;0.7;;;0.7;;
68872;SDS011;55907;50.806;12.882;2024-03-23T11:28:09;0.5;;;0.5;;
68872;SDS011;55907;50.806;12.882;2024-03-23T11:31:09;1.0;;;1.0;;
68872;SDS011;55907;50.806;12.882;2024-03-23T11:34:05;0.6;;;0.6;;
68872;SDS011;55907;50.806;12.882;2024-03-23T11:43:08;0.4;;;0.4;;
68872;SDS011;55907;50.806;12.882;2024-03-23T11:46:08;1.3;;;0.7;;
68872;SDS011;55907;50.806;12.882;2024-03-23T11:49:19;0.9;;;0.9;;
68872;SDS011;55907;50.806;12.882;2024-03-23T11:52:10;2.7;;;2.5;;
68872;SDS011;55907;50.806;12.882;2024-03-23T11:55:10;1.2;;;1.1;;
68872;SDS011;55907;50.806;12.882;2024-03-23T11:58:11;1.1;;;1.1;;
68872;SDS011;55907;50.806;12.882;2024-03-23T12:01:12;0.7;;;0.5;;
68872;SDS011;55907;50.806;12.882;2024-03-23T12:04:13;2.1;;;0.6;;
68872;SDS011;55907;50.806;12.882;2024-03-23T12:07:14;0.4;;;0.4;;
68872;SDS011;55907;50.806;12.882;2024-03-23T12:13:16;0.5;;;0.5;;
68872;SDS011;55907;50.806;12.882;2024-03-23T12:22:20;0.8;;;0.8;;
68872;SDS011;55907;50.806;12.882;2024-03-23T12:25:18;1.0;;;0.9;;
68872;SDS011;55907;50.806;12.882;2024-03-23T12:28:19;0.9;;;0.9;;
68872;SDS011;55907;50.806;12.882;2024-03-23T12:31:20;2.1;;;2.0;;
68872;SDS011;55907;50.806;12.882;2024-03-23T12:34:20;1.1;;;1.1;;
68872;SDS011;55907;50.806;12.882;2024-03-23T12:37:21;0.9;;;0.9;;
68872;SDS011;55907;50.806;12.882;2024-03-23T12:40:22;0.7;;;0.7;;
68872;SDS011;55907;50.806;12.882;2024-03-23T12:43:23;0.6;;;0.6;;
68872;SDS011;55907;50.806;12.882;2024-03-23T12:49:24;0.8;;;0.8;;
68872;SDS011;55907;50.806;12.882;2024-03-23T12:52:25;1.2;;;1.1;;
68872;SDS011;55907;50.806;12.882;2024-03-23T12:55:26;1.4;;;1.3;;
68872;SDS011;55907;50.806;12.882;2024-03-23T12:58:27;0.9;;;0.9;;
68872;SDS011;55907;50.806;12.882;2024-03-23T13:01:27;2.3;;;1.2;;
68872;SDS011;55907;50.806;12.882;2024-03-23T13:04:28;5.3;;;4.8;;
68872;SDS011;55907;50.806;12.882;2024-03-23T13:07:29;1.2;;;1.1;;
68872;SDS011;55907;50.806;12.882;2024-03-23T13:10:30;1.1;;;1.0;;
68872;SDS011;55907;50.806;12.882;2024-03-23T13:13:30;2.2;;;0.9;;
68872;SDS011;55907;50.806;12.882;2024-03-23T13:16:31;1.9;;;1.2;;
68872;SDS011;55907;50.806;12.882;2024-03-23T13:19:32;1.3;;;1.0;;
68872;SDS011;55907;50.806;12.882;2024-03-23T13:22:33;1.9;;;1.3;;
68872;SDS011;55907;50.806;12.882;2024-03-23T13:25:34;1.3;;;1.2;;
68872;SDS011;55907;50.806;12.882;2024-03-23T13:28:34;1.8;;;1.1;;
68872;SDS011;55907;50.806;12.882;2024-03-23T13:31:35;3.4;;;1.6;;
68872;SDS011;55907;50.806;12.882;2024-03-23T13:34:36;2.6;;;1.9;;
68872;SDS011;55907;50.806;12.882;2024-03-23T13:37:36;2.8;;;1.7;;
68872;SDS011;55907;50.806;12.882;2024-03-23T13:40:37;2.9;;;2.3;;
68872;SDS011;55907;50.806;12.882;2024-03-23T13:43:38;1.8;;;1.7;;
68872;SDS011;55907;50.806;12.882;2024-03-23T13:46:39;2.5;;;1.7;;
68872;SDS011;55907;50.806;12.882;2024-03-23T13:49:39;3.8;;;1.9;;
68872;SDS011;55907;50.806;12.882;2024-03-23T13:52:40;2.5;;;1.8;;
68872;SDS011;55907;50.806;12.882;2024-03-23T13:55:45;5.9;;;3.0;;
68872;SDS011;55907;50.806;12.882;2024-03-23T13:58:42;4.4;;;2.4;;
68872;SDS011;55907;50.806;12.882;2024-03-23T14:01:43;4.5;;;2.4;;
68872;SDS011;55907;50.806;12.882;2024-03-23T14:04:43;4.6;;;2.3;;
68872;SDS011;55907;50.806;12.882;2024-03-23T14:07:44;5.4;;;3.9;;
68872;SDS011;55907;50.806;12.882;2024-03-23T14:10:45;3.5;;;2.5;;
68872;SDS011;55907;50.806;12.882;2024-03-23T14:13:45;3.8;;;2.4;;
68872;SDS011;55907;50.806;12.882;2024-03-23T14:16:46;3.4;;;2.5;;
68872;SDS011;55907;50.806;12.882;2024-03-23T14:19:47;5.0;;;3.2;;
68872;SDS011;55907;50.806;12.882;2024-03-23T14:22:48;3.8;;;2.4;;
68872;SDS011;55907;50.806;12.882;2024-03-23T14:25:48;4.9;;;2.8;;
68872;SDS011;55907;50.806;12.882;2024-03-23T14:28:49;4.8;;;3.1;;
68872;SDS011;55907;50.806;12.882;2024-03-23T14:31:50;5.1;;;2.9;;
68872;SDS011;55907;50.806;12.882;2024-03-23T14:34:51;3.6;;;2.9;;
68872;SDS011;55907;50.806;12.882;2024-03-23T14:37:51;5.9;;;4.0;;
68872;SDS011;55907;50.806;12.882;2024-03-23T14:40:52;4.3;;;2.9;;
68872;SDS011;55907;50.806;12.882;2024-03-23T14:43:53;7.7;;;3.8;;
68872;SDS011;55907;50.806;12.882;2024-03-23T14:46:54;4.3;;;3.2;;
68872;SDS011;55907;50.806;12.882;2024-03-23T14:49:54;2.9;;;2.3;;
68872;SDS011;55907;50.806;12.882;2024-03-23T14:52:55;3.5;;;2.3;;
68872;SDS011;55907;50.806;12.882;2024-03-23T14:55:56;3.1;;;2.8;;
68872;SDS011;55907;50.806;12.882;2024-03-23T14:58:57;3.2;;;2.2;;
68872;SDS011;55907;50.806;12.882;2024-03-23T15:01:57;3.9;;;2.1;;
68872;SDS011;55907;50.806;12.882;2024-03-23T15:04:58;3.3;;;1.8;;
68872;SDS011;55907;50.806;12.882;2024-03-23T15:07:59;2.7;;;2.3;;
68872;SDS011;55907;50.806;12.882;2024-03-23T15:11:00;2.8;;;1.7;;
68872;SDS011;55907;50.806;12.882;2024-03-23T15:14:00;2.3;;;2.1;;
68872;SDS011;55907;50.806;12.882;2024-03-23T15:17:01;4.3;;;2.9;;
68872;SDS011;55907;50.806;12.882;2024-03-23T15:20:02;1.8;;;1.5;;
68872;SDS011;55907;50.806;12.882;2024-03-23T15:23:03;1.9;;;1.7;;
68872;SDS011;55907;50.806;12.882;2024-03-23T15:26:03;1.7;;;1.6;;
68872;SDS011;55907;50.806;12.882;2024-03-23T15:29:04;2.6;;;1.7;;
68872;SDS011;55907;50.806;12.882;2024-03-23T15:32:05;2.8;;;2.4;;
68872;SDS011;55907;50.806;12.882;2024-03-23T15:35:06;5.5;;;2.1;;
68872;SDS011;55907;50.806;12.882;2024-03-23T15:38:06;2.5;;;2.3;;
68872;SDS011;55907;50.806;12.882;2024-03-23T15:41:07;2.0;;;1.9;;
68872;SDS011;55907;50.806;12.882;2024-03-23T15:47:09;3.4;;;1.8;;
68872;SDS011;55907;50.806;12.882;2024-03-23T15:50:09;2.2;;;1.7;;
68872;SDS011;55907;50.806;12.882;2024-03-23T15:53:10;2.5;;;2.1;;
68872;SDS011;55907;50.806;12.882;2024-03-23T15:56:11;2.3;;;1.5;;
68872;SDS011;55907;50.806;12.882;2024-03-23T15:59:12;1.9;;;1.5;;
68872;SDS011;55907;50.806;12.882;2024-03-23T16:02:12;1.7;;;1.6;;
68872;SDS011;55907;50.806;12.882;2024-03-23T16:05:13;2.6;;;1.6;;
68872;SDS011;55907;50.806;12.882;2024-03-23T16:08:14;1.9;;;1.7;;
68872;SDS011;55907;50.806;12.882;2024-03-23T16:11:15;2.1;;;1.9;;
68872;SDS011;55907;50.806;12.882;2024-03-23T16:14:15;3.5;;;2.3;;
68872;SDS011;55907;50.806;12.882;2024-03-23T16:17:16;2.4;;;2.0;;
68872;SDS011;55907;50.806;12.882;2024-03-23T16:20:17;3.0;;;2.6;;
68872;SDS011;55907;50.806;12.882;2024-03-23T16:23:18;6.5;;;5.1;;
68872;SDS011;55907;50.806;12.882;2024-03-23T16:26:18;2.6;;;2.4;;
68872;SDS011;55907;50.806;12.882;2024-03-23T16:32:20;2.3;;;2.2;;
68872;SDS011;55907;50.806;12.882;2024-03-23T16:35:21;2.7;;;2.6;;
68872;SDS011;55907;50.806;12.882;2024-03-23T16:38:21;2.2;;;2.1;;
68872;SDS011;55907;50.806;12.882;2024-03-23T16:41:22;2.5;;;2.2;;
68872;SDS011;55907;50.806;12.882;2024-03-23T16:44:23;2.2;;;1.9;;
68872;SDS011;55907;50.806;12.882;2024-03-23T16:47:24;1.9;;;1.8;;
68872;SDS011;55907;50.806;12.882;2024-03-23T16:50:24;3.7;;;3.4;;
68872;SDS011;55907;50.806;12.882;2024-03-23T16:53:25;2.4;;;2.2;;
68872;SDS011;55907;50.806;12.882;2024-03-23T16:56:26;2.5;;;2.2;;
68872;SDS011;55907;50.806;12.882;2024-03-23T16:59:27;2.1;;;1.9;;
68872;SDS011;55907;50.806;12.882;2024-03-23T17:02:27;2.0;;;1.9;;
68872;SDS011;55907;50.806;12.882;2024-03-23T17:05:28;2.5;;;2.3;;
68872;SDS011;55907;50.806;12.882;2024-03-23T17:11:30;2.3;;;2.2;;
68872;SDS011;55907;50.806;12.882;2024-03-23T17:14:30;3.2;;;2.9;;
68872;SDS011;55907;50.806;12.882;2024-03-23T17:17:31;3.4;;;2.2;;
68872;SDS011;55907;50.806;12.882;2024-03-23T17:20:32;2.1;;;2.0;;
68872;SDS011;55907;50.806;12.882;2024-03-23T17:23:33;2.4;;;2.3;;
68872;SDS011;55907;50.806;12.882;2024-03-23T17:26:33;2.5;;;2.2;;
68872;SDS011;55907;50.806;12.882;2024-03-23T17:29:34;2.6;;;2.1;;
68872;SDS011;55907;50.806;12.882;2024-03-23T17:32:35;2.1;;;2.0;;
68872;SDS011;55907;50.806;12.882;2024-03-23T17:35:36;3.5;;;1.7;;
68872;SDS011;55907;50.806;12.882;2024-03-23T17:38:37;1.9;;;1.7;;
68872;SDS011;55907;50.806;12.882;2024-03-23T17:41:37;3.0;;;1.6;;
68872;SDS011;55907;50.806;12.882;2024-03-23T17:44:38;2.1;;;1.7;;
68872;SDS011;55907;50.806;12.882;2024-03-23T17:47:39;2.5;;;2.3;;
68872;SDS011;55907;50.806;12.882;2024-03-23T17:50:40;2.3;;;1.6;;
68872;SDS011;55907;50.806;12.882;2024-03-23T17:53:40;3.7;;;2.1;;
68872;SDS011;55907;50.806;12.882;2024-03-23T17:56:41;3.4;;;2.4;;
68872;SDS011;55907;50.806;12.882;2024-03-23T17:59:42;2.6;;;1.7;;
68872;SDS011;55907;50.806;12.882;2024-03-23T18:02:43;2.3;;;1.8;;
68872;SDS011;55907;50.806;12.882;2024-03-23T18:05:43;2.9;;;2.4;;
68872;SDS011;55907;50.806;12.882;2024-03-23T18:08:44;2.8;;;2.5;;
68872;SDS011;55907;50.806;12.882;2024-03-23T18:11:45;2.6;;;1.7;;
68872;SDS011;55907;50.806;12.882;2024-03-23T18:14:46;2.1;;;1.8;;
68872;SDS011;55907;50.806;12.882;2024-03-23T18:17:46;1.8;;;1.7;;
68872;SDS011;55907;50.806;12.882;2024-03-23T18:20:47;2.8;;;2.6;;
68872;SDS011;55907;50.806;12.882;2024-03-23T18:23:48;2.5;;;2.3;;
68872;SDS011;55907;50.806;12.882;2024-03-23T18:29:50;2.8;;;1.7;;
68872;SDS011;55907;50.806;12.882;2024-03-23T18:32:50;2.5;;;1.9;;
68872;SDS011;55907;50.806;12.882;2024-03-23T18:35:51;1.6;;;1.5;;
68872;SDS011;55907;50.806;12.882;2024-03-23T18:38:52;3.1;;;2.8;;
68872;SDS011;55907;50.806;12.882;2024-03-23T18:41:53;2.5;;;2.3;;
68872;SDS011;55907;50.806;12.882;2024-03-23T18:44:53;1.7;;;1.6;;
68872;SDS011;55907;50.806;12.882;2024-03-23T18:47:54;2.5;;;1.6;;
68872;SDS011;55907;50.806;12.882;2024-03-23T18:50:55;3.1;;;2.1;;
68872;SDS011;55907;50.806;12.882;2024-03-23T18:53:56;1.6;;;1.4;;
68872;SDS011;55907;50.806;12.882;2024-03-23T18:56:56;1.5;;;1.4;;
68872;SDS011;55907;50.806;12.882;2024-03-23T18:59:57;1.7;;;1.4;;
68872;SDS011;55907;50.806;12.882;2024-03-23T19:02:58;4.3;;;1.6;;
68872;SDS011;55907;50.806;12.882;2024-03-23T19:05:59;2.0;;;1.3;;
68872;SDS011;55907;50.806;12.882;2024-03-23T19:09:00;1.6;;;1.5;;
68872;SDS011;55907;50.806;12.882;2024-03-23T19:12:00;2.1;;;1.4;;
68872;SDS011;55907;50.806;12.882;2024-03-23T19:15:01;1.7;;;1.6;;
68872;SDS011;55907;50.806;12.882;2024-03-23T19:21:03;1.4;;;1.2;;
68872;SDS011;55907;50.806;12.882;2024-03-23T19:24:04;2.2;;;1.4;;
68872;SDS011;55907;50.806;12.882;2024-03-23T19:27:04;2.3;;;1.9;;
68872;SDS011;55907;50.806;12.882;2024-03-23T19:30:05;4.1;;;3.7;;
68872;SDS011;55907;50.806;12.882;2024-03-23T19:33:06;2.8;;;2.5;;
68872;SDS011;55907;50.806;12.882;2024-03-23T19:36:07;1.6;;;1.4;;
68872;SDS011;55907;50.806;12.882;2024-03-23T19:39:07;1.3;;;1.2;;
68872;SDS011;55907;50.806;12.882;2024-03-23T19:42:08;1.7;;;1.3;;
68872;SDS011;55907;50.806;12.882;2024-03-23T19:45:09;1.4;;;1.2;;
68872;SDS011;55907;50.806;12.882;2024-03-23T19:48:10;2.2;;;1.7;;
68872;SDS011;55907;50.806;12.882;2024-03-23T19:51:10;2.4;;;1.9;;
68872;SDS011;55907;50.806;12.882;2024-03-23T19:54:11;1.4;;;1.3;;
68872;SDS011;55907;50.806;12.882;2024-03-23T19:57:12;2.3;;;2.1;;
68872;SDS011;55907;50.806;12.882;2024-03-23T20:00:13;2.5;;;2.2;;
68872;SDS011;55907;50.806;12.882;2024-03-23T20:03:14;2.9;;;1.5;;